Time;durP1;ratioP1;P1;durP2;ratioP2;P2;SDS_P1;SDS_P2;PMS_P1;PMS_P2;Temp;Humidity;BMP_temperature;BMP_pressure;BME280_temperature;BME280_humidity;BME280_pressure;Samples;Min_cycle;Max_cycle;Signal;HPM_P1;HPM_P2
2023/04/14 00:00:19;;;;;;;;;;;5.90;99.90;;;;;;5129050;28;19919;-43
2023/04/14 00:02:44;;;;;;;;;;;5.90;99.90;;;;;;5112192;28;19914;-43
2023/04/14 00:05:10;;;;;;;;;;;5.90;99.90;;;;;;5110926;28;20279;-42
2023/04/14 00:07:36;;;;;;;;;;;5.90;99.90;;;;;;5112138;28;19915;-44
2023/04/14 00:10:01;;;;;;;;;;;5.90;99.90;;;;;;5112166;28;19930;-42
2023/04/14 00:12:27;;;;;;;;;;;5.90;99.90;;;;;;5111084;28;19916;-42
2023/04/14 00:14:52;;;;;;;;;;;5.90;99.90;;;;;;5112176;28;19908;-42
2023/04/14 00:17:18;;;;;;;;;;;5.90;99.90;;;;;;5111743;28;19907;-43
2023/04/14 00:19:43;;;;;;;;;;;5.90;99.90;;;;;;5111256;28;20398;-42
2023/04/14 00:22:08;;;;;;;;;;;5.90;99.90;;;;;;5111805;28;19916;-42
2023/04/14 00:24:42;;;;;;;;;;;6.00;99.90;;;;;;5111951;28;19907;-44
2023/04/14 00:27:08;;;;;;;;;;;6.00;99.90;;;;;;5115003;28;20052;-43
2023/04/14 00:29:33;;;;;;;;;;;6.00;99.90;;;;;;5118256;27;19923;-44
2023/04/14 00:31:59;;;;;;;;;;;5.90;99.90;;;;;;5135376;27;20062;-42
2023/04/14 00:34:24;;;;;;;;;;;5.90;99.90;;;;;;5135764;27;20368;-43
2023/04/14 00:36:50;;;;;;;;;;;5.80;99.90;;;;;;5136049;27;19908;-43
2023/04/14 00:39:15;;;;;;;;;;;5.80;99.90;;;;;;5134894;27;19915;-43
2023/04/14 00:41:42;;;;;;;;;;;5.80;99.90;;;;;;5136290;27;20333;-42
2023/04/14 00:44:08;;;;;;;;;;;5.80;99.90;;;;;;5135746;27;20405;-44
2023/04/14 00:46:34;;;;;;;;;;;5.80;99.90;;;;;;5134974;27;19965;-43
2023/04/14 00:49:00;;;;;;;;;;;5.70;99.90;;;;;;5135783;27;19907;-44
2023/04/14 00:51:26;;;;;;;;;;;5.70;99.90;;;;;;5135435;27;20254;-43
2023/04/14 00:53:52;;;;;;;;;;;5.70;99.90;;;;;;5135124;27;19914;-43
2023/04/14 00:56:17;;;;;;;;;;;5.70;99.90;;;;;;5135400;27;19923;-42
2023/04/14 00:58:43;;;;;;;;;;;5.60;99.90;;;;;;5135633;27;20014;-43
2023/04/14 01:01:08;;;;;;;;;;;5.50;99.90;;;;;;5134656;27;20315;-43
2023/04/14 01:03:35;;;;;;;;;;;5.40;99.90;;;;;;5135495;27;19907;-42
2023/04/14 01:06:00;;;;;;;;;;;5.20;99.90;;;;;;5135533;27;20361;-43
2023/04/14 01:08:26;;;;;;;;;;;5.10;99.90;;;;;;5134354;27;19914;-42
2023/04/14 01:11:03;;;;;;;;;;;5.00;99.90;;;;;;5135569;27;19907;-42
2023/04/14 01:13:32;;;;;;;;;;;4.90;99.90;;;;;;5135117;27;19971;-44
2023/04/14 01:15:59;;;;;;;;;;;4.80;99.90;;;;;;5134502;27;19937;-42
2023/04/14 01:18:29;;;;;;;;;;;4.70;99.90;;;;;;5134826;27;19916;-43
2023/04/14 01:21:01;;;;;;;;;;;4.60;99.90;;;;;;5134558;27;19960;-45
2023/04/14 01:23:31;;;;;;;;;;;4.50;99.90;;;;;;5135086;27;19911;-42
2023/04/14 01:26:17;;;;;;;;;;;4.50;99.90;;;;;;5135213;27;19960;-43
2023/04/14 01:28:47;;;;;;;;;;;4.50;99.90;;;;;;5133988;27;19927;-43
2023/04/14 01:31:22;;;;;;;;;;;4.50;99.90;;;;;;5134679;27;19907;-43
2023/04/14 01:33:51;;;;;;;;;;;4.50;99.90;;;;;;5134942;27;20555;-43
2023/04/14 01:36:21;;;;;;;;;;;4.50;99.90;;;;;;5133764;27;19908;-42
2023/04/14 01:38:47;;;;;;;;;;;4.60;99.90;;;;;;5134714;27;19915;-42
2023/04/14 01:41:15;;;;;;;;;;;4.60;99.90;;;;;;5121887;27;19912;-42
2023/04/14 01:43:42;;;;;;;;;;;4.60;99.90;;;;;;5113557;28;19908;-43
2023/04/14 01:46:11;;;;;;;;;;;4.60;99.90;;;;;;5114151;28;20335;-42
2023/04/14 01:48:37;;;;;;;;;;;4.70;99.90;;;;;;5114275;28;19907;-42
2023/04/14 01:51:03;;;;;;;;;;;4.70;99.90;;;;;;5113267;28;20278;-43
2023/04/14 01:53:30;;;;;;;;;;;4.70;99.90;;;;;;5113894;28;20278;-42
2023/04/14 01:55:56;;;;;;;;;;;4.70;99.90;;;;;;5125129;27;19965;-43
2023/04/14 01:58:24;;;;;;;;;;;4.70;99.90;;;;;;5133429;27;19922;-41
2023/04/14 02:00:51;;;;;;;;;;;4.70;99.90;;;;;;5134402;27;20329;-43
2023/04/14 02:03:20;;;;;;;;;;;4.80;99.90;;;;;;5133312;27;19912;-43
2023/04/14 02:05:47;;;;;;;;;;;4.80;99.90;;;;;;5134336;27;19908;-44
2023/04/14 02:08:12;;;;;;;;;;;4.90;99.90;;;;;;5126430;27;20003;-42
2023/04/14 02:10:40;;;;;;;;;;;4.90;99.90;;;;;;5121663;27;20419;-42
2023/04/14 02:13:06;;;;;;;;;;;5.00;99.90;;;;;;5124922;27;20375;-42
2023/04/14 02:15:32;;;;;;;;;;;5.00;99.90;;;;;;5133905;27;19907;-43
2023/04/14 02:17:58;;;;;;;;;;;5.10;99.90;;;;;;5118962;27;19965;-43
2023/04/14 02:20:24;;;;;;;;;;;5.00;99.90;;;;;;5113150;28;19911;-42
2023/04/14 02:22:50;;;;;;;;;;;5.00;99.90;;;;;;5113505;28;19919;-42
2023/04/14 02:25:15;;;;;;;;;;;5.00;99.90;;;;;;5124490;27;19908;-42
2023/04/14 02:27:50;;;;;;;;;;;5.10;99.90;;;;;;5133840;27;20006;-43
2023/04/14 02:30:18;;;;;;;;;;;5.10;99.90;;;;;;5133514;27;20429;-42
2023/04/14 02:32:48;;;;;;;;;;;5.10;99.90;;;;;;5133136;27;19960;-43
2023/04/14 02:35:18;;;;;;;;;;;5.10;99.90;;;;;;5133424;27;19962;-43
2023/04/14 02:37:49;;;;;;;;;;;5.20;99.90;;;;;;5133893;27;19914;-43
2023/04/14 02:40:20;;;;;;;;;;;5.20;99.90;;;;;;5132716;27;19941;-42
2023/04/14 02:42:49;;;;;;;;;;;5.20;99.90;;;;;;5133681;27;19908;-42
2023/04/14 02:45:25;;;;;;;;;;;5.10;99.90;;;;;;5133311;27;19947;-43
2023/04/14 02:47:55;;;;;;;;;;;5.10;99.90;;;;;;5133620;27;19923;-44
2023/04/14 02:50:21;;;;;;;;;;;5.10;99.90;;;;;;5132900;27;19908;-42
2023/04/14 02:52:50;;;;;;;;;;;5.00;99.90;;;;;;5132760;27;19907;-43
2023/04/14 02:55:17;;;;;;;;;;;5.00;99.90;;;;;;5133076;27;19911;-42
2023/04/14 02:57:43;;;;;;;;;;;5.00;99.90;;;;;;5133426;27;19908;-43
2023/04/14 03:00:09;;;;;;;;;;;5.00;99.90;;;;;;5132269;27;19927;-43
2023/04/14 03:02:35;;;;;;;;;;;5.00;99.90;;;;;;5133397;27;20411;-43
2023/04/14 03:05:01;;;;;;;;;;;5.00;99.90;;;;;;5133275;27;19907;-42
2023/04/14 03:07:27;;;;;;;;;;;5.00;99.90;;;;;;5132159;27;19908;-43
2023/04/14 03:09:53;;;;;;;;;;;5.00;99.90;;;;;;5133284;27;19914;-43
2023/04/14 03:12:19;;;;;;;;;;;5.00;99.90;;;;;;5132880;27;19907;-42
2023/04/14 03:14:46;;;;;;;;;;;5.00;99.90;;;;;;5132283;27;19907;-44
2023/04/14 03:17:13;;;;;;;;;;;4.90;99.90;;;;;;5132896;27;19907;-43
2023/04/14 03:19:40;;;;;;;;;;;4.90;99.90;;;;;;5133116;27;19978;-42
2023/04/14 03:22:09;;;;;;;;;;;4.90;99.90;;;;;;5132307;27;19997;-42
2023/04/14 03:24:36;;;;;;;;;;;4.90;99.90;;;;;;5133232;27;19914;-43
2023/04/14 03:27:03;;;;;;;;;;;4.90;99.90;;;;;;5133033;27;19935;-45
2023/04/14 03:29:31;;;;;;;;;;;5.00;99.90;;;;;;5131657;27;20352;-43
2023/04/14 03:31:58;;;;;;;;;;;4.90;99.90;;;;;;5133016;27;19943;-42
2023/04/14 03:34:26;;;;;;;;;;;5.00;99.90;;;;;;5132696;27;20429;-42
2023/04/14 03:36:53;;;;;;;;;;;5.10;99.90;;;;;;5132182;27;19998;-42
2023/04/14 03:39:21;;;;;;;;;;;5.10;99.90;;;;;;5132498;27;19952;-43
2023/04/14 03:41:50;;;;;;;;;;;5.10;99.90;;;;;;5132045;27;19941;-42
2023/04/14 03:44:17;;;;;;;;;;;5.20;99.90;;;;;;5132598;27;20045;-42
2023/04/14 03:46:43;;;;;;;;;;;5.20;99.90;;;;;;5132994;27;19915;-43
2023/04/14 03:49:10;;;;;;;;;;;5.20;99.90;;;;;;5131687;27;19908;-42
2023/04/14 03:51:40;;;;;;;;;;;5.20;99.90;;;;;;5132486;27;19911;-42
2023/04/14 03:54:06;;;;;;;;;;;5.20;99.90;;;;;;5132528;27;19919;-45
2023/04/14 03:56:33;;;;;;;;;;;5.10;99.90;;;;;;5131476;27;19916;-43
2023/04/14 03:58:59;;;;;;;;;;;5.10;99.90;;;;;;5132389;27;19931;-43
2023/04/14 04:01:25;;;;;;;;;;;5.00;99.90;;;;;;5134282;27;19912;-42
2023/04/14 04:03:52;;;;;;;;;;;5.00;99.90;;;;;;5135825;27;19911;-41
2023/04/14 04:06:18;;;;;;;;;;;4.90;99.90;;;;;;5136128;27;19928;-42
2023/04/14 04:08:46;;;;;;;;;;;4.80;99.90;;;;;;5136232;27;20226;-43
2023/04/14 04:11:11;;;;;;;;;;;4.70;99.90;;;;;;5135391;27;19946;-44
2023/04/14 04:13:38;;;;;;;;;;;4.70;99.90;;;;;;5136614;27;19939;-43
2023/04/14 04:16:05;;;;;;;;;;;4.70;99.90;;;;;;5136562;27;19953;-42
2023/04/14 04:18:32;;;;;;;;;;;4.60;99.90;;;;;;5135493;27;19924;-44
2023/04/14 04:20:58;;;;;;;;;;;4.60;99.90;;;;;;5136492;27;19912;-43
2023/04/14 04:23:24;;;;;;;;;;;4.60;99.90;;;;;;5136056;27;19914;-43
2023/04/14 04:25:50;;;;;;;;;;;4.50;99.90;;;;;;5135809;27;19907;-43
2023/04/14 04:28:16;;;;;;;;;;;4.50;99.90;;;;;;5135726;27;20271;-41
2023/04/14 04:30:44;;;;;;;;;;;4.40;99.90;;;;;;5136510;27;19907;-43
2023/04/14 04:33:10;;;;;;;;;;;4.40;99.90;;;;;;5135153;27;19907;-44
2023/04/14 04:35:36;;;;;;;;;;;4.40;99.90;;;;;;5136191;27;19914;-42
2023/04/14 04:38:02;;;;;;;;;;;4.30;99.90;;;;;;5135145;27;19907;-43
2023/04/14 04:40:34;;;;;;;;;;;4.20;99.90;;;;;;5135941;27;19908;-42
2023/04/14 04:42:59;;;;;;;;;;;4.20;99.90;;;;;;5135795;27;19915;-44
2023/04/14 04:45:37;;;;;;;;;;;4.10;99.90;;;;;;5131558;27;19908;-42
2023/04/14 04:48:03;;;;;;;;;;;4.10;99.90;;;;;;5135814;27;20369;-43
2023/04/14 04:50:28;;;;;;;;;;;4.10;99.90;;;;;;5131374;27;19919;-43
2023/04/14 04:52:54;;;;;;;;;;;4.00;99.90;;;;;;5114433;28;20418;-42
2023/04/14 04:55:19;;;;;;;;;;;4.10;99.90;;;;;;5114813;28;19908;-43
2023/04/14 04:57:45;;;;;;;;;;;4.00;99.90;;;;;;5115182;28;19915;-43
2023/04/14 05:00:10;;;;;;;;;;;4.00;99.90;;;;;;5128678;27;19916;-42
2023/04/14 05:02:36;;;;;;;;;;;4.10;99.90;;;;;;5135568;27;20418;-44
2023/04/14 05:05:01;;;;;;;;;;;4.00;99.90;;;;;;5135402;27;19946;-42
2023/04/14 05:07:27;;;;;;;;;;;4.00;99.90;;;;;;5134511;27;19994;-42
2023/04/14 05:09:52;;;;;;;;;;;4.00;99.90;;;;;;5135264;27;19916;-42
2023/04/14 05:12:18;;;;;;;;;;;4.00;99.90;;;;;;5134440;27;19923;-42
2023/04/14 05:14:43;;;;;;;;;;;4.00;99.90;;;;;;5134097;27;19972;-42
2023/04/14 05:17:09;;;;;;;;;;;4.00;99.90;;;;;;5133751;27;19918;-43
2023/04/14 05:19:35;;;;;;;;;;;4.10;99.90;;;;;;5134037;27;19919;-42
2023/04/14 05:22:00;;;;;;;;;;;4.10;99.90;;;;;;5133690;27;19914;-43
2023/04/14 05:24:26;;;;;;;;;;;4.10;99.90;;;;;;5134297;27;20258;-43
2023/04/14 05:26:51;;;;;;;;;;;4.10;99.90;;;;;;5134590;27;20002;-43
2023/04/14 05:29:17;;;;;;;;;;;4.20;99.90;;;;;;5133190;27;19919;-42
2023/04/14 05:31:42;;;;;;;;;;;4.20;99.90;;;;;;5134417;27;19952;-43
2023/04/14 05:34:08;;;;;;;;;;;4.20;99.90;;;;;;5128390;27;19934;-44
2023/04/14 05:36:33;;;;;;;;;;;4.20;99.90;;;;;;5134058;27;19914;-44
2023/04/14 05:38:59;;;;;;;;;;;4.30;99.90;;;;;;5134234;27;19922;-44
2023/04/14 05:41:24;;;;;;;;;;;4.40;99.90;;;;;;5133170;27;19911;-44
2023/04/14 05:43:50;;;;;;;;;;;4.40;99.90;;;;;;5133766;27;19923;-42
2023/04/14 05:46:15;;;;;;;;;;;4.40;99.90;;;;;;5132752;27;20278;-44
2023/04/14 05:48:40;;;;;;;;;;;4.40;99.90;;;;;;5132100;27;19960;-42
2023/04/14 05:51:06;;;;;;;;;;;4.50;99.90;;;;;;5130154;27;20258;-43
2023/04/14 05:53:31;;;;;;;;;;;4.50;99.90;;;;;;5132799;27;19929;-43
2023/04/14 05:55:57;;;;;;;;;;;4.50;99.90;;;;;;5132431;27;20360;-42
2023/04/14 05:58:25;;;;;;;;;;;4.50;99.90;;;;;;5132500;27;19922;-44
2023/04/14 06:00:50;;;;;;;;;;;4.60;99.90;;;;;;5132982;27;19915;-42
2023/04/14 06:03:16;;;;;;;;;;;4.60;99.90;;;;;;5131703;27;19908;-43
2023/04/14 06:05:41;;;;;;;;;;;4.70;99.90;;;;;;5133036;27;19911;-45
2023/04/14 06:08:07;;;;;;;;;;;4.70;99.90;;;;;;5132838;27;19960;-42
2023/04/14 06:10:34;;;;;;;;;;;4.80;99.90;;;;;;5131718;27;19908;-42
2023/04/14 06:13:00;;;;;;;;;;;4.80;99.90;;;;;;5132326;27;19965;-43
2023/04/14 06:15:28;;;;;;;;;;;4.90;99.90;;;;;;5132368;27;19947;-43
2023/04/14 06:17:54;;;;;;;;;;;4.90;99.90;;;;;;5131498;27;20326;-46
2023/04/14 06:20:20;;;;;;;;;;;4.90;99.90;;;;;;5131859;27;20384;-42
2023/04/14 06:22:46;;;;;;;;;;;5.10;99.90;;;;;;5132238;27;19919;-43
2023/04/14 06:25:11;;;;;;;;;;;5.10;99.90;;;;;;5126145;27;20348;-44
2023/04/14 06:27:37;;;;;;;;;;;5.20;99.90;;;;;;5125609;27;19912;-44
2023/04/14 06:30:03;;;;;;;;;;;5.30;99.90;;;;;;5129981;27;19974;-42
2023/04/14 06:32:29;;;;;;;;;;;5.30;99.90;;;;;;5126247;27;19984;-42
2023/04/14 06:34:54;;;;;;;;;;;5.50;99.90;;;;;;5131615;27;20349;-42
2023/04/14 06:37:20;;;;;;;;;;;5.50;99.90;;;;;;5131352;27;19915;-42
2023/04/14 06:39:45;;;;;;;;;;;5.70;99.90;;;;;;5131603;27;19923;-44
2023/04/14 06:42:12;;;;;;;;;;;5.80;99.90;;;;;;5128565;27;19912;-42
2023/04/14 06:44:38;;;;;;;;;;;5.90;99.90;;;;;;5131396;27;19915;-42
2023/04/14 06:47:03;;;;;;;;;;;6.00;99.90;;;;;;5131673;27;19912;-41
2023/04/14 06:49:29;;;;;;;;;;;6.10;99.90;;;;;;5131504;27;19919;-43
2023/04/14 06:51:54;;;;;;;;;;;6.30;99.90;;;;;;5128016;27;20384;-43
2023/04/14 06:54:20;;;;;;;;;;;6.40;99.90;;;;;;5140737;27;19911;-42
2023/04/14 06:56:45;;;;;;;;;;;6.50;99.90;;;;;;5133576;27;19908;-44
2023/04/14 06:59:11;;;;;;;;;;;6.60;99.90;;;;;;5116804;27;19915;-42
2023/04/14 07:01:37;;;;;;;;;;;6.80;99.90;;;;;;5129461;27;20020;-43
2023/04/14 07:04:02;;;;;;;;;;;6.90;99.90;;;;;;5132975;27;19919;-43
2023/04/14 07:06:27;;;;;;;;;;;7.00;99.90;;;;;;5118306;27;20264;-42
2023/04/14 07:08:54;;;;;;;;;;;7.10;99.90;;;;;;5133336;27;19929;-42
2023/04/14 07:11:20;;;;;;;;;;;7.30;99.90;;;;;;5132864;27;20026;-42
2023/04/14 07:13:45;;;;;;;;;;;7.40;99.90;;;;;;5132044;27;20429;-42
2023/04/14 07:16:11;;;;;;;;;;;7.50;99.90;;;;;;5132596;27;19914;-42
2023/04/14 07:18:37;;;;;;;;;;;7.50;99.90;;;;;;5133194;27;19951;-42
2023/04/14 07:21:02;;;;;;;;;;;7.70;99.90;;;;;;5132366;27;19914;-43
2023/04/14 07:23:28;;;;;;;;;;;7.80;99.90;;;;;;5132612;27;19916;-43
2023/04/14 07:25:54;;;;;;;;;;;7.90;99.90;;;;;;5121956;28;20134;-43
2023/04/14 07:28:21;;;;;;;;;;;8.00;99.90;;;;;;5117333;28;19965;-42
2023/04/14 07:30:47;;;;;;;;;;;8.10;99.90;;;;;;5114480;28;19981;-42
2023/04/14 07:33:17;;;;;;;;;;;8.10;99.90;;;;;;5103958;28;20358;-42
2023/04/14 07:35:43;;;;;;;;;;;8.30;99.90;;;;;;5118061;27;19912;-42
2023/04/14 07:38:08;;;;;;;;;;;8.30;99.90;;;;;;5110494;27;19923;-42
2023/04/14 07:40:34;;;;;;;;;;;8.40;99.90;;;;;;5100445;28;19908;-42
2023/04/14 07:43:00;;;;;;;;;;;8.50;99.90;;;;;;5115806;28;19907;-42
2023/04/14 07:45:26;;;;;;;;;;;8.60;99.90;;;;;;5100379;28;20019;-42
2023/04/14 07:47:51;;;;;;;;;;;8.70;99.90;;;;;;5115443;28;19908;-42
2023/04/14 07:50:17;;;;;;;;;;;8.80;99.90;;;;;;5116086;28;20465;-43
2023/04/14 07:52:42;;;;;;;;;;;8.90;99.90;;;;;;5110766;27;19912;-42
2023/04/14 07:55:08;;;;;;;;;;;9.00;99.90;;;;;;5112347;27;19916;-42
2023/04/14 07:57:34;;;;;;;;;;;9.10;99.90;;;;;;5114381;27;19923;-42
2023/04/14 07:59:59;;;;;;;;;;;9.20;99.90;;;;;;5120410;27;19919;-42
2023/04/14 08:02:26;;;;;;;;;;;9.30;99.90;;;;;;5117730;27;20012;-44
2023/04/14 08:04:51;;;;;;;;;;;9.40;99.90;;;;;;5104080;28;19916;-44
2023/04/14 08:07:16;;;;;;;;;;;9.50;99.90;;;;;;5098289;28;19931;-41
2023/04/14 08:09:42;;;;;;;;;;;9.60;99.90;;;;;;5099027;28;19912;-43
2023/04/14 08:12:07;;;;;;;;;;;9.70;99.90;;;;;;5103765;28;20350;-44
2023/04/14 08:14:33;;;;;;;;;;;9.80;99.90;;;;;;5105409;28;20346;-43
2023/04/14 08:16:58;;;;;;;;;;;9.90;99.90;;;;;;5100720;27;20374;-41
2023/04/14 08:19:24;;;;;;;;;;;9.90;99.90;;;;;;5107949;27;19928;-42
2023/04/14 08:21:50;;;;;;;;;;;10.00;99.90;;;;;;5106504;27;19918;-42
2023/04/14 08:24:16;;;;;;;;;;;10.10;99.90;;;;;;5102469;28;19912;-43
2023/04/14 08:26:41;;;;;;;;;;;10.20;99.90;;;;;;5115610;28;20392;-42
2023/04/14 08:29:07;;;;;;;;;;;10.30;99.90;;;;;;5127679;27;19920;-42
2023/04/14 08:31:33;;;;;;;;;;;10.40;99.90;;;;;;5129232;27;19912;-43
2023/04/14 08:33:58;;;;;;;;;;;10.50;99.90;;;;;;5136687;27;19911;-43
2023/04/14 08:36:24;;;;;;;;;;;10.50;99.90;;;;;;5131234;27;19915;-43
2023/04/14 08:38:49;;;;;;;;;;;10.70;99.90;;;;;;5115800;27;19963;-44
2023/04/14 08:41:17;;;;;;;;;;;10.70;99.90;;;;;;5129046;27;20311;-42
2023/04/14 08:43:43;;;;;;;;;;;10.80;99.90;;;;;;5120806;27;19907;-42
2023/04/14 08:46:10;;;;;;;;;;;11.00;99.90;;;;;;5120509;27;20010;-44
2023/04/14 08:48:37;;;;;;;;;;;11.00;99.90;;;;;;5125006;27;19918;-43
2023/04/14 08:51:09;;;;;;;;;;;11.10;99.90;;;;;;5126940;27;19959;-41
2023/04/14 08:53:41;;;;;;;;;;;11.20;99.90;;;;;;5120778;27;19976;-43
2023/04/14 08:56:08;;;;;;;;;;;11.20;99.90;;;;;;5125883;27;19915;-42
2023/04/14 08:58:33;;;;;;;;;;;11.30;99.90;;;;;;5126675;27;20081;-42
2023/04/14 09:00:59;;;;;;;;;;;11.40;99.90;;;;;;5122402;27;20421;-42
2023/04/14 09:03:25;;;;;;;;;;;11.40;99.90;;;;;;5126115;27;19912;-42
2023/04/14 09:05:51;;;;;;;;;;;11.50;99.90;;;;;;5133842;27;19912;-43
2023/04/14 09:08:16;;;;;;;;;;;11.60;99.90;;;;;;5131363;27;19911;-42
2023/04/14 09:10:42;;;;;;;;;;;11.70;99.90;;;;;;5126449;27;19950;-43
2023/04/14 09:13:10;;;;;;;;;;;11.80;99.90;;;;;;5134558;27;19912;-44
2023/04/14 09:15:37;;;;;;;;;;;11.80;99.90;;;;;;5134522;27;19911;-43
2023/04/14 09:18:02;;;;;;;;;;;11.90;99.90;;;;;;5135117;27;20276;-42
2023/04/14 09:20:28;;;;;;;;;;;12.00;99.90;;;;;;5132754;27;20086;-42
2023/04/14 09:22:54;;;;;;;;;;;12.00;99.90;;;;;;5135198;27;19912;-44
2023/04/14 09:25:19;;;;;;;;;;;12.10;99.90;;;;;;5134766;27;19915;-42
2023/04/14 09:27:46;;;;;;;;;;;12.20;99.90;;;;;;5134068;27;19907;-42
2023/04/14 09:30:12;;;;;;;;;;;12.30;99.90;;;;;;5134719;27;19962;-42
2023/04/14 09:32:38;;;;;;;;;;;12.40;99.90;;;;;;5117189;27;20351;-43
2023/04/14 09:35:05;;;;;;;;;;;12.50;99.90;;;;;;5113645;28;20417;-42
2023/04/14 09:37:43;;;;;;;;;;;12.60;99.90;;;;;;5110641;27;19918;-43
2023/04/14 09:40:09;;;;;;;;;;;12.60;99.90;;;;;;5104202;28;20132;-44
2023/04/14 09:42:38;;;;;;;;;;;12.70;99.90;;;;;;5092827;28;20276;-44
2023/04/14 09:45:04;;;;;;;;;;;12.80;99.90;;;;;;5100447;28;19912;-42
2023/04/14 09:47:30;;;;;;;;;;;12.90;99.90;;;;;;5092672;28;19919;-43
2023/04/14 09:49:58;;;;;;;;;;;12.90;99.90;;;;;;5109744;28;20282;-42
2023/04/14 09:52:39;;;;;;;;;;;12.90;99.90;;;;;;5113651;28;19908;-42
2023/04/14 09:55:06;;;;;;;;;;;13.00;99.90;;;;;;5113308;28;19961;-45
2023/04/14 09:57:33;;;;;;;;;;;13.20;99.90;;;;;;5113399;28;19912;-42
2023/04/14 09:59:58;;;;;;;;;;;13.20;99.90;;;;;;5089252;28;19974;-43
2023/04/14 10:02:25;;;;;;;;;;;13.30;99.90;;;;;;5098229;27;19912;-44
2023/04/14 10:05:04;;;;;;;;;;;13.20;88.90;;;;;;5097488;28;19912;-43
2023/04/14 10:07:29;;;;;;;;;;;13.20;99.90;;;;;;5101997;28;19939;-42
2023/04/14 10:09:55;;;;;;;;;;;13.30;99.90;;;;;;5105575;28;19908;-42
2023/04/14 10:12:21;;;;;;;;;;;13.40;99.90;;;;;;5092879;28;19916;-43
2023/04/14 10:14:46;;;;;;;;;;;13.50;99.90;;;;;;5104866;28;19913;-46
2023/04/14 10:17:12;;;;;;;;;;;13.60;99.90;;;;;;5106014;28;19931;-42
2023/04/14 10:19:38;;;;;;;;;;;13.60;92.90;;;;;;5108863;28;19923;-43
2023/04/14 10:22:06;;;;;;;;;;;13.70;96.40;;;;;;5095268;28;20419;-44
2023/04/14 10:24:32;;;;;;;;;;;13.80;95.40;;;;;;5091886;28;19915;-42
2023/04/14 10:27:02;;;;;;;;;;;14.00;99.90;;;;;;5093019;28;19915;-42
2023/04/14 10:29:28;;;;;;;;;;;14.10;97.70;;;;;;5106880;28;20010;-43
2023/04/14 10:31:56;;;;;;;;;;;14.20;87.80;;;;;;5113033;28;19908;-42
2023/04/14 10:34:23;;;;;;;;;;;14.10;99.90;;;;;;5112656;28;19996;-43
2023/04/14 10:36:48;;;;;;;;;;;14.20;96.20;;;;;;5129984;27;19915;-43
2023/04/14 10:39:19;;;;;;;;;;;14.20;94.90;;;;;;5133211;27;19922;-43
2023/04/14 10:41:46;;;;;;;;;;;14.10;81.20;;;;;;5133769;27;19915;-43
2023/04/14 10:44:22;;;;;;;;;;;14.20;91.60;;;;;;5132471;27;20321;-42
2023/04/14 10:46:48;;;;;;;;;;;14.10;93.00;;;;;;5133539;27;19934;-43
2023/04/14 10:49:13;;;;;;;;;;;14.10;96.20;;;;;;5133269;27;20361;-42
2023/04/14 10:51:39;;;;;;;;;;;14.30;99.90;;;;;;5131559;27;20019;-42
2023/04/14 10:54:13;;;;;;;;;;;14.30;95.60;;;;;;5133517;27;19912;-42
2023/04/14 10:56:39;;;;;;;;;;;14.20;94.20;;;;;;5123923;27;19911;-44
2023/04/14 10:59:04;;;;;;;;;;;14.10;98.20;;;;;;5130190;27;19926;-42
2023/04/14 11:01:31;;;;;;;;;;;14.20;92.80;;;;;;5127960;27;19908;-43
2023/04/14 11:04:16;;;;;;;;;;;14.40;99.30;;;;;;5133368;27;19918;-41
2023/04/14 11:06:48;;;;;;;;;;;14.60;99.90;;;;;;5117903;27;20070;-41
2023/04/14 11:09:22;;;;;;;;;;;14.80;94.80;;;;;;5112292;28;19908;-43
2023/04/14 11:11:47;;;;;;;;;;;15.00;99.90;;;;;;5111872;28;19908;-41
2023/04/14 11:14:14;;;;;;;;;;;15.10;99.80;;;;;;5112186;28;20266;-42
2023/04/14 11:16:40;;;;;;;;;;;15.30;97.70;;;;;;5128007;27;19911;-42
2023/04/14 11:19:14;;;;;;;;;;;15.40;92.00;;;;;;5142711;27;19919;-43
2023/04/14 11:21:48;;;;;;;;;;;15.50;95.20;;;;;;5153728;27;19958;-41
2023/04/14 11:24:14;;;;;;;;;;;15.60;99.90;;;;;;5152299;27;20269;-41
2023/04/14 11:26:40;;;;;;;;;;;15.50;88.00;;;;;;5148025;27;19911;-43
2023/04/14 11:29:07;;;;;;;;;;;15.50;97.20;;;;;;5135837;27;19924;-42
2023/04/14 11:31:35;;;;;;;;;;;15.40;83.80;;;;;;5153066;27;20396;-41
2023/04/14 11:34:05;;;;;;;;;;;15.60;87.40;;;;;;5153593;27;20313;-44
2023/04/14 11:36:35;;;;;;;;;;;15.80;93.70;;;;;;5153849;27;20017;-42
2023/04/14 11:39:01;;;;;;;;;;;15.60;90.80;;;;;;5154247;27;19921;-43
2023/04/14 11:41:26;;;;;;;;;;;15.70;94.70;;;;;;5145376;27;19919;-43
2023/04/14 11:43:52;;;;;;;;;;;15.80;98.20;;;;;;5133366;28;19907;-42
2023/04/14 11:46:21;;;;;;;;;;;15.70;91.00;;;;;;5143323;27;20005;-42
2023/04/14 11:48:46;;;;;;;;;;;15.60;81.90;;;;;;5133081;27;19998;-41
2023/04/14 11:51:12;;;;;;;;;;;15.80;87.10;;;;;;5133139;28;20002;-42
2023/04/14 11:53:39;;;;;;;;;;;16.10;83.70;;;;;;5133279;28;19915;-43
2023/04/14 11:56:07;;;;;;;;;;;16.40;94.90;;;;;;5132950;28;19908;-42
2023/04/14 11:58:33;;;;;;;;;;;16.50;94.40;;;;;;5140381;27;20357;-42
2023/04/14 12:00:58;;;;;;;;;;;16.50;92.20;;;;;;5153616;27;19911;-42
2023/04/14 12:03:26;;;;;;;;;;;16.50;77.10;;;;;;5148389;27;20333;-42
2023/04/14 12:05:55;;;;;;;;;;;16.50;84.50;;;;;;5153925;27;20005;-43
2023/04/14 12:08:22;;;;;;;;;;;16.80;90.20;;;;;;5153278;27;19927;-44
2023/04/14 12:10:48;;;;;;;;;;;17.00;75.00;;;;;;5154034;27;20006;-43
2023/04/14 12:13:14;;;;;;;;;;;17.00;58.20;;;;;;5153549;27;19911;-43
2023/04/14 12:15:40;;;;;;;;;;;16.90;58.80;;;;;;5153190;27;20060;-42
2023/04/14 12:18:07;;;;;;;;;;;16.90;65.70;;;;;;5153665;27;19914;-42
2023/04/14 12:20:43;;;;;;;;;;;16.90;68.70;;;;;;5145207;27;20273;-43
2023/04/14 12:23:09;;;;;;;;;;;17.00;70.30;;;;;;5148325;27;19918;-42
2023/04/14 12:25:35;;;;;;;;;;;17.20;80.90;;;;;;5137993;27;19911;-41
2023/04/14 12:28:04;;;;;;;;;;;17.30;70.50;;;;;;5143126;27;19911;-42
2023/04/14 12:30:30;;;;;;;;;;;17.10;61.20;;;;;;5142246;27;19920;-42
2023/04/14 12:32:55;;;;;;;;;;;16.60;57.00;;;;;;5139966;27;19917;-42
2023/04/14 12:35:22;;;;;;;;;;;16.80;63.00;;;;;;5137811;27;20357;-42
2023/04/14 12:37:52;;;;;;;;;;;17.00;62.10;;;;;;5141980;27;19922;-42
2023/04/14 12:40:35;;;;;;;;;;;17.20;61.10;;;;;;5146432;27;19963;-42
2023/04/14 12:43:00;;;;;;;;;;;17.40;62.50;;;;;;5143535;27;19915;-44
2023/04/14 12:45:37;;;;;;;;;;;17.70;71.80;;;;;;5134730;27;20296;-42
2023/04/14 12:48:03;;;;;;;;;;;17.80;66.20;;;;;;5136067;27;19925;-42
2023/04/14 12:50:29;;;;;;;;;;;17.90;69.10;;;;;;5134220;27;19916;-42
2023/04/14 12:52:55;;;;;;;;;;;18.10;73.40;;;;;;5146653;27;20253;-42
2023/04/14 12:55:26;;;;;;;;;;;18.20;59.90;;;;;;5139068;27;19916;-42
2023/04/14 12:57:52;;;;;;;;;;;18.50;67.50;;;;;;5146433;27;19969;-43
2023/04/14 13:00:18;;;;;;;;;;;18.70;70.50;;;;;;5135834;27;20353;-42
2023/04/14 13:02:44;;;;;;;;;;;18.50;60.30;;;;;;5141858;27;19919;-41
2023/04/14 13:05:10;;;;;;;;;;;18.50;61.70;;;;;;5134735;27;20081;-42
2023/04/14 13:07:36;;;;;;;;;;;18.70;61.20;;;;;;5136108;27;19908;-43
2023/04/14 13:10:02;;;;;;;;;;;18.90;59.80;;;;;;5136193;27;19907;-42
2023/04/14 13:12:28;;;;;;;;;;;19.30;64.80;;;;;;5135137;27;20017;-43
2023/04/14 13:14:53;;;;;;;;;;;19.60;58.20;;;;;;5135912;27;19947;-42
2023/04/14 13:17:19;;;;;;;;;;;19.80;52.70;;;;;;5135647;27;20104;-45
2023/04/14 13:19:45;;;;;;;;;;;;;;;;;;5141190;27;19980;-42
2023/04/14 13:22:11;;;;;;;;;;;20.10;54.80;;;;;;5156191;27;20022;-44
2023/04/14 13:24:37;;;;;;;;;;;20.40;56.30;;;;;;5156653;27;19932;-44
2023/04/14 13:27:03;;;;;;;;;;;20.80;62.10;;;;;;5156200;27;20002;-43
2023/04/14 13:29:30;;;;;;;;;;;21.00;61.90;;;;;;5155746;27;19927;-43
2023/04/14 13:31:55;;;;;;;;;;;20.60;56.70;;;;;;5156627;27;19915;-43
2023/04/14 13:34:21;;;;;;;;;;;20.70;58.70;;;;;;5155253;27;20253;-43
2023/04/14 13:36:47;;;;;;;;;;;20.90;54.90;;;;;;5156194;27;19954;-44
2023/04/14 13:39:12;;;;;;;;;;;21.30;55.30;;;;;;5155527;27;19915;-43
2023/04/14 13:41:38;;;;;;;;;;;21.70;59.80;;;;;;5155650;27;19918;-43
2023/04/14 13:44:03;;;;;;;;;;;21.90;51.70;;;;;;5156366;27;19907;-44
2023/04/14 13:46:29;;;;;;;;;;;22.20;51.10;;;;;;5155436;27;20841;-44
2023/04/14 13:48:55;;;;;;;;;;;22.40;52.70;;;;;;5155872;27;19915;-43
2023/04/14 13:51:22;;;;;;;;;;;22.50;50.00;;;;;;5155681;27;19980;-44
2023/04/14 13:53:47;;;;;;;;;;;22.70;52.00;;;;;;5155507;27;19911;-42
2023/04/14 13:56:13;;;;;;;;;;;22.80;51.80;;;;;;5155599;27;19911;-45
2023/04/14 13:58:38;;;;;;;;;;;22.40;54.90;;;;;;5155757;27;19998;-43
2023/04/14 14:01:07;;;;;;;;;;;22.00;55.50;;;;;;5155468;27;19912;-43
2023/04/14 14:03:33;;;;;;;;;;;22.00;50.00;;;;;;5155202;27;20324;-43
2023/04/14 14:05:58;;;;;;;;;;;22.00;55.50;;;;;;5146738;27;20001;-42
2023/04/14 14:08:24;;;;;;;;;;;22.00;56.20;;;;;;5148231;27;20261;-44
2023/04/14 14:10:49;;;;;;;;;;;21.80;57.50;;;;;;5155619;27;20364;-45
2023/04/14 14:13:15;;;;;;;;;;;21.50;56.10;;;;;;5147716;27;19907;-43
2023/04/14 14:15:41;;;;;;;;;;;21.30;56.70;;;;;;5154936;27;19943;-43
2023/04/14 14:18:06;;;;;;;;;;;21.50;56.30;;;;;;5155567;27;20302;-46
2023/04/14 14:20:32;;;;;;;;;;;21.80;58.80;;;;;;5147321;27;20365;-43
2023/04/14 14:22:57;;;;;;;;;;;22.30;58.40;;;;;;5145997;27;19907;-42